createdAt,value
2018-05-15T00:01:25.206Z,80.52
2018-05-15T00:03:53.885Z,80.33
2018-05-15T00:06:22.264Z,80.77
2018-05-15T00:08:50.709Z,80.53
2018-05-15T00:11:19.156Z,81.94
2018-05-15T00:13:47.565Z,81.63
2018-05-15T00:16:15.971Z,81.83
2018-05-15T00:18:44.779Z,82.42
2018-05-15T00:21:13.195Z,82.13
2018-05-15T00:23:41.613Z,84.35
2018-05-15T00:26:10.039Z,84.21
2018-05-15T00:28:38.447Z,84.93
2018-05-15T00:31:06.843Z,84.39
2018-05-15T00:33:35.671Z,83.46
2018-05-15T00:36:04.107Z,83.31
2018-05-15T00:38:32.516Z,84.38
2018-05-15T00:41:01.233Z,85.06
2018-05-15T00:43:29.699Z,84.64
2018-05-15T00:45:58.122Z,83.90
2018-05-15T00:48:26.980Z,83.46
2018-05-15T00:50:55.386Z,84.15
2018-05-15T00:53:23.795Z,84.14
2018-05-15T00:55:52.236Z,83.37
2018-05-15T00:58:20.649Z,84.17
2018-05-15T01:00:49.072Z,84.87
2018-05-15T01:03:17.864Z,84.20
2018-05-15T01:05:46.269Z,82.58
2018-05-15T01:08:14.692Z,81.63
2018-05-15T01:10:43.128Z,81.45
2018-05-15T01:13:11.517Z,81.27
2018-05-15T01:15:39.923Z,82.58
2018-05-15T01:18:08.510Z,81.78
2018-05-15T01:20:36.959Z,81.83
2018-05-15T01:23:05.358Z,83.02
2018-05-15T01:25:33.956Z,83.38
2018-05-15T01:28:02.378Z,83.32
2018-05-15T01:30:30.960Z,84.82
2018-05-15T01:32:59.752Z,84.19
2018-05-15T01:35:28.147Z,83.73
2018-05-15T01:37:56.568Z,84.53
2018-05-15T01:40:25.095Z,83.74
2018-05-15T01:42:53.539Z,84.12
2018-05-15T01:45:21.961Z,84.13
2018-05-15T01:47:50.700Z,83.81
2018-05-15T01:50:19.106Z,82.50
2018-05-15T01:52:47.563Z,82.07
2018-05-15T01:55:16.403Z,82.98
2018-05-15T01:57:44.803Z,83.61
2018-05-15T02:00:13.204Z,82.79
2018-05-15T02:02:41.714Z,84.00
2018-05-15T02:05:10.137Z,82.93
2018-05-15T02:07:38.557Z,84.65
2018-05-15T02:10:06.987Z,84.56
2018-05-15T02:12:35.397Z,84.93
2018-05-15T02:15:03.835Z,84.12
2018-05-15T02:17:32.559Z,85.42
2018-05-15T02:20:00.954Z,84.87
2018-05-15T02:22:29.364Z,84.41
2018-05-15T02:24:57.814Z,85.40
2018-05-15T02:27:26.250Z,84.93
2018-05-15T02:29:54.652Z,83.61
2018-05-15T02:32:23.319Z,84.82
2018-05-15T02:34:51.727Z,84.33
2018-05-15T02:37:20.269Z,85.64
2018-05-15T02:39:48.979Z,85.02
2018-05-15T02:42:17.432Z,84.65
2018-05-15T02:44:45.861Z,86.10
2018-05-15T02:47:14.336Z,86.48
2018-05-15T02:49:42.775Z,85.41
2018-05-15T02:52:11.188Z,85.30
2018-05-15T02:54:40.179Z,84.05
2018-05-15T02:57:08.611Z,84.37
2018-05-15T02:59:37.010Z,84.83
2018-05-15T03:02:05.779Z,84.85
2018-05-15T03:04:34.223Z,84.69
2018-05-15T03:07:02.655Z,83.83
2018-05-15T03:09:31.476Z,83.43
2018-05-15T03:11:59.922Z,84.54
2018-05-15T03:14:28.340Z,83.62
2018-05-15T03:16:57.224Z,83.88
2018-05-15T03:19:25.612Z,83.37
2018-05-15T03:21:54.033Z,84.56
2018-05-15T03:24:22.782Z,83.70
2018-05-15T03:26:51.175Z,83.60
2018-05-15T03:29:19.560Z,83.75
2018-05-15T03:31:48.297Z,83.32
2018-05-15T03:34:16.691Z,82.69
2018-05-15T03:36:45.103Z,84.08
2018-05-15T03:39:13.759Z,83.79
2018-05-15T03:41:42.169Z,84.16
2018-05-15T03:44:10.563Z,83.28
2018-05-15T03:46:38.991Z,83.64
2018-05-15T03:49:07.445Z,84.37
2018-05-15T03:51:35.897Z,83.70
2018-05-15T03:54:04.631Z,83.30
2018-05-15T03:56:33.049Z,82.70
2018-05-15T03:59:01.452Z,82.61
2018-05-15T04:01:41.564Z,82.11
2018-05-15T04:04:21.956Z,82.31
2018-05-15T04:07:02.657Z,81.42
2018-05-15T04:09:31.054Z,80.84
2018-05-15T04:11:59.474Z,81.06
2018-05-15T04:14:29.170Z,81.13
2018-05-15T04:16:57.714Z,80.12
2018-05-15T04:19:26.133Z,79.28
2018-05-15T04:21:54.725Z,80.29
2018-05-15T04:24:23.162Z,80.53
2018-05-15T04:26:51.588Z,79.95
2018-05-15T04:29:20.478Z,79.74
2018-05-15T04:31:48.946Z,81.12
2018-05-15T04:34:17.378Z,79.97
2018-05-15T04:36:46.138Z,80.54
2018-05-15T04:39:14.548Z,80.71
2018-05-15T04:41:42.960Z,79.88
2018-05-15T04:44:11.415Z,79.00
2018-05-15T04:46:39.807Z,79.17
2018-05-15T04:49:08.247Z,79.75
2018-05-15T04:51:36.927Z,80.75
2018-05-15T04:54:05.359Z,80.90
2018-05-15T04:56:33.761Z,80.72
2018-05-15T04:59:02.563Z,80.49
2018-05-15T05:01:30.964Z,79.92
2018-05-15T05:03:59.368Z,79.21
2018-05-15T05:06:28.559Z,76.40
2018-05-15T05:08:57.008Z,75.03
2018-05-15T05:11:25.419Z,74.03
2018-05-15T05:13:54.972Z,73.22
2018-05-15T05:16:23.387Z,71.48
2018-05-15T05:18:51.774Z,71.38
2018-05-15T05:21:20.214Z,70.96
2018-05-15T05:23:48.631Z,69.11
2018-05-15T05:26:17.068Z,69.75
2018-05-15T05:28:45.585Z,70.35
2018-05-15T05:31:13.984Z,68.64
2018-05-15T05:33:42.429Z,67.97
2018-05-15T05:36:11.576Z,67.69
2018-05-15T05:38:40.029Z,69.48
2018-05-15T05:41:08.417Z,68.89
2018-05-15T05:43:37.512Z,67.62
2018-05-15T05:46:05.963Z,66.39
2018-05-15T05:48:34.337Z,64.64
2018-05-15T05:51:03.168Z,64.28
2018-05-15T05:53:31.609Z,63.59
2018-05-15T05:56:00.045Z,62.45
2018-05-15T05:58:28.705Z,61.18
2018-05-15T06:00:57.128Z,60.66
2018-05-15T06:03:25.534Z,61.20
2018-05-15T06:05:53.991Z,61.67
2018-05-15T06:08:22.415Z,60.86
2018-05-15T06:10:50.831Z,59.91
2018-05-15T06:13:19.447Z,59.74
2018-05-15T06:15:47.890Z,59.27
2018-05-15T06:18:16.318Z,57.68
2018-05-15T06:20:45.235Z,58.11
2018-05-15T06:23:13.539Z,57.78
2018-05-15T06:25:41.952Z,57.07
2018-05-15T06:28:10.407Z,58.17
2018-05-15T06:30:38.802Z,56.89
2018-05-15T06:33:07.296Z,56.10
2018-05-15T06:35:35.759Z,57.18
2018-05-15T06:38:04.181Z,55.80
2018-05-15T06:40:32.573Z,55.00
2018-05-15T06:43:01.380Z,55.10
2018-05-15T06:45:29.809Z,55.18
2018-05-15T06:47:58.223Z,58.62
2018-05-15T06:50:27.216Z,58.03
2018-05-15T06:52:55.707Z,57.49
2018-05-15T06:55:24.107Z,57.64
2018-05-15T06:57:52.841Z,55.29
2018-05-15T07:00:21.265Z,54.04
2018-05-15T07:02:49.670Z,53.45
2018-05-15T07:05:18.114Z,52.33
2018-05-15T07:07:46.573Z,52.74
2018-05-15T07:10:14.942Z,51.23
2018-05-15T07:12:43.623Z,51.61
2018-05-15T07:15:11.992Z,51.46
2018-05-15T07:17:40.387Z,50.76
2018-05-15T07:20:08.850Z,50.91
2018-05-15T07:22:37.291Z,50.68
2018-05-15T07:25:05.671Z,52.44
2018-05-15T07:27:34.278Z,52.62
2018-05-15T07:30:02.696Z,52.87
2018-05-15T07:32:31.097Z,52.88
2018-05-15T07:34:59.549Z,52.66
2018-05-15T07:37:27.997Z,55.89
2018-05-15T07:39:56.450Z,55.90
2018-05-15T07:42:25.171Z,54.51
2018-05-15T07:44:53.561Z,55.37
2018-05-15T07:47:21.966Z,54.21
2018-05-15T07:49:50.804Z,52.13
2018-05-15T07:52:19.195Z,52.52
2018-05-15T07:54:47.602Z,51.10
2018-05-15T07:57:16.055Z,49.17
2018-05-15T07:59:44.448Z,47.23
2018-05-15T08:02:13.041Z,45.39
2018-05-15T08:04:41.693Z,44.53
2018-05-15T08:07:10.096Z,44.19
2018-05-15T08:09:38.526Z,45.10
2018-05-15T08:12:06.992Z,44.02
2018-05-15T08:14:35.412Z,40.99
2018-05-15T08:17:03.847Z,42.58
2018-05-15T08:19:32.643Z,42.17
2018-05-15T08:22:01.096Z,41.18
2018-05-15T08:24:29.496Z,40.32
2018-05-15T08:26:58.100Z,40.66
2018-05-15T08:29:26.485Z,39.79
2018-05-15T08:31:54.922Z,41.66
2018-05-15T08:34:23.680Z,41.97
2018-05-15T08:36:52.071Z,42.06
2018-05-15T08:39:20.515Z,42.11
2018-05-15T08:41:49.332Z,44.53
2018-05-15T08:44:17.730Z,45.49
2018-05-15T08:46:46.169Z,42.76
2018-05-15T08:49:14.779Z,42.66
2018-05-15T08:51:43.187Z,42.51
2018-05-15T08:54:11.583Z,42.09
2018-05-15T08:56:40.224Z,41.58
2018-05-15T08:59:08.637Z,41.10
2018-05-15T09:01:37.042Z,40.43
2018-05-15T09:04:05.788Z,39.64
2018-05-15T09:06:34.201Z,37.91
2018-05-15T09:09:02.693Z,40.50
2018-05-15T09:11:31.356Z,42.61
2018-05-15T09:13:59.749Z,43.16
2018-05-15T09:16:28.798Z,45.10
2018-05-15T09:18:57.531Z,47.09
2018-05-15T09:21:25.934Z,47.00
2018-05-15T09:23:54.324Z,45.66
2018-05-15T09:26:23.032Z,46.21
2018-05-15T09:28:51.418Z,44.21
2018-05-15T09:31:19.842Z,43.25
2018-05-15T09:33:48.890Z,41.99
2018-05-15T09:36:17.285Z,39.03
2018-05-15T09:38:45.695Z,38.64
2018-05-15T09:41:14.144Z,37.62
2018-05-15T09:43:57.473Z,36.68
2018-05-15T09:46:26.141Z,36.41
2018-05-15T09:48:54.618Z,35.08
2018-05-15T09:51:23.016Z,34.22
2018-05-15T09:53:51.478Z,32.67
2018-05-15T09:56:19.876Z,33.51
2018-05-15T09:58:48.281Z,34.43
2018-05-15T10:01:17.025Z,33.57
2018-05-15T10:03:45.540Z,33.32
2018-05-15T10:06:13.947Z,31.95
2018-05-15T10:08:42.419Z,32.86
2018-05-15T10:11:10.855Z,33.68
2018-05-15T10:13:39.241Z,35.53
2018-05-15T10:16:08.127Z,35.72
2018-05-15T10:18:36.527Z,35.72
2018-05-15T10:21:04.948Z,37.24
2018-05-15T10:23:33.392Z,35.58
2018-05-15T10:26:01.795Z,35.85
2018-05-15T10:28:30.203Z,36.23
2018-05-15T10:30:59.591Z,34.75
2018-05-15T10:33:27.998Z,33.09
2018-05-15T10:35:56.399Z,34.53
2018-05-15T10:38:25.180Z,33.70
2018-05-15T10:40:53.579Z,31.61
2018-05-15T10:43:22.011Z,31.30
2018-05-15T10:45:50.877Z,28.15
2018-05-15T10:48:19.265Z,26.35
2018-05-15T10:50:47.691Z,27.40
2018-05-15T10:53:16.139Z,27.62
2018-05-15T10:55:44.587Z,27.16
2018-05-15T10:58:12.982Z,27.61
2018-05-15T11:00:41.823Z,27.80
2018-05-15T11:03:10.217Z,25.95
2018-05-15T11:05:38.639Z,25.99
2018-05-15T11:08:07.478Z,24.31
2018-05-15T11:10:35.890Z,23.06
2018-05-15T11:13:04.278Z,24.91
2018-05-15T11:15:32.777Z,23.52
2018-05-15T11:18:12.879Z,25.26
2018-05-15T11:20:53.113Z,26.38
2018-05-15T11:23:33.719Z,29.44
2018-05-15T11:26:02.506Z,28.55
2018-05-15T11:28:30.936Z,28.93
2018-05-15T11:30:59.334Z,28.15
2018-05-15T11:33:27.932Z,27.73
2018-05-15T11:35:56.378Z,28.49
2018-05-15T11:38:24.828Z,27.38
2018-05-15T11:40:53.583Z,25.77
2018-05-15T11:43:21.983Z,24.64
2018-05-15T11:45:50.378Z,23.78
2018-05-15T11:48:19.532Z,24.66
2018-05-15T11:50:48.323Z,25.62
2018-05-15T11:53:16.590Z,25.31
2018-05-15T11:55:44.689Z,24.54
2018-05-15T11:58:13.089Z,25.47
2018-05-15T12:00:41.491Z,24.79
2018-05-15T12:03:10.247Z,24.96
2018-05-15T12:05:38.633Z,24.81
2018-05-15T12:08:07.110Z,23.88
2018-05-15T12:10:35.843Z,23.69
2018-05-15T12:13:04.231Z,26.03
2018-05-15T12:15:32.626Z,25.81
2018-05-15T12:18:01.427Z,25.18
2018-05-15T12:20:29.810Z,24.34
2018-05-15T12:22:58.212Z,24.72
2018-05-15T12:25:27.088Z,23.58
2018-05-15T12:27:55.560Z,22.37
2018-05-15T12:30:23.928Z,21.18
2018-05-15T12:32:52.727Z,20.01
2018-05-15T12:35:21.202Z,19.42
2018-05-15T12:37:49.612Z,20.82
2018-05-15T12:40:18.381Z,20.72
2018-05-15T12:42:46.826Z,20.94
2018-05-15T12:45:15.224Z,21.78
2018-05-15T12:47:44.063Z,19.93
2018-05-15T12:50:12.452Z,19.40
2018-05-15T12:52:41.150Z,21.77
2018-05-15T12:55:09.808Z,22.35
2018-05-15T12:57:38.425Z,23.14
2018-05-15T13:00:06.893Z,21.39
2018-05-15T13:02:35.318Z,22.19
2018-05-15T13:05:03.773Z,23.60
2018-05-15T13:07:32.251Z,23.28
2018-05-15T13:10:00.992Z,23.53
2018-05-15T13:12:29.490Z,22.69
2018-05-15T13:14:57.882Z,23.08
2018-05-15T13:17:26.488Z,22.50
2018-05-15T13:19:54.885Z,22.90
2018-05-15T13:22:23.269Z,21.88
2018-05-15T13:24:52.097Z,19.99
2018-05-15T13:27:20.501Z,20.24
2018-05-15T13:29:48.896Z,20.25
2018-05-15T13:32:17.440Z,18.92
2018-05-15T13:34:46.002Z,19.79
2018-05-15T13:37:14.405Z,24.38
2018-05-15T13:39:43.487Z,24.08
2018-05-15T13:42:11.879Z,24.33
2018-05-15T13:44:40.265Z,25.49
2018-05-15T13:47:09.036Z,26.91
2018-05-15T13:49:37.452Z,28.43
2018-05-15T13:52:05.834Z,30.03
2018-05-15T13:54:34.604Z,30.95
2018-05-15T13:57:02.995Z,29.83
2018-05-15T13:59:31.453Z,30.02
2018-05-15T14:02:00.240Z,31.00
2018-05-15T14:04:28.691Z,32.87
2018-05-15T14:06:58.184Z,36.31
2018-05-15T14:09:28.562Z,44.84
2018-05-15T14:11:59.096Z,49.87
2018-05-15T14:14:28.416Z,55.38
2018-05-15T14:16:56.945Z,57.48
2018-05-15T14:19:27.436Z,57.46
2018-05-15T14:21:56.839Z,60.53
2018-05-15T14:24:26.239Z,59.31
2018-05-15T14:26:54.622Z,59.27
2018-05-15T14:29:23.056Z,58.53
2018-05-15T14:31:51.496Z,58.24
2018-05-15T14:34:19.913Z,58.93
2018-05-15T14:36:48.476Z,56.58
2018-05-15T14:39:16.850Z,53.15
2018-05-15T14:41:57.128Z,51.05
2018-05-15T14:44:25.546Z,48.91
2018-05-15T14:46:54.010Z,48.10
2018-05-15T14:49:22.503Z,47.53
2018-05-15T14:51:50.887Z,48.81
2018-05-15T14:54:19.305Z,53.77
2018-05-15T14:56:47.699Z,54.10
2018-05-15T14:59:16.148Z,53.21
2018-05-15T15:01:44.549Z,55.08
2018-05-15T15:04:12.972Z,53.83
2018-05-15T15:06:41.496Z,53.99
2018-05-15T15:09:09.935Z,55.58
2018-05-15T15:11:38.403Z,57.09
2018-05-15T15:14:06.832Z,58.81
2018-05-15T15:16:35.330Z,60.25
2018-05-15T15:19:03.717Z,61.05
2018-05-15T15:21:32.155Z,63.08
2018-05-15T15:24:00.531Z,62.40
2018-05-15T15:26:28.963Z,63.43
2018-05-15T15:28:57.413Z,62.74
2018-05-15T15:31:25.902Z,61.51
2018-05-15T15:33:54.619Z,62.79
2018-05-15T15:36:23.087Z,64.83
2018-05-15T15:38:51.522Z,66.13
2018-05-15T15:41:20.447Z,66.08
2018-05-15T15:43:48.904Z,60.09
2018-05-15T15:46:17.357Z,52.65
2018-05-15T15:48:45.762Z,45.41
2018-05-15T15:51:14.187Z,44.39
2018-05-15T15:53:42.658Z,39.70
2018-05-15T15:56:11.063Z,38.56
2018-05-15T15:58:39.440Z,38.57
2018-05-15T16:01:07.826Z,39.94
2018-05-15T16:03:36.261Z,43.34
2018-05-15T16:06:04.691Z,43.98
2018-05-15T16:08:33.100Z,42.33
2018-05-15T16:11:01.533Z,40.14
2018-05-15T16:13:29.993Z,39.63
2018-05-15T16:15:58.381Z,35.41
2018-05-15T16:18:26.807Z,37.88
2018-05-15T16:20:55.200Z,39.66
2018-05-15T16:23:23.610Z,39.19
2018-05-15T16:25:52.042Z,42.42
2018-05-15T16:28:20.409Z,47.07
2018-05-15T16:30:48.859Z,51.23
2018-05-15T16:33:17.234Z,53.19
2018-05-15T16:35:45.642Z,56.10
2018-05-15T16:38:14.119Z,59.59
2018-05-15T16:40:42.531Z,60.76
2018-05-15T16:43:11.003Z,59.90
2018-05-15T16:45:39.413Z,60.40
2018-05-15T16:48:07.815Z,62.64
2018-05-15T16:50:36.208Z,63.28
2018-05-15T16:53:04.723Z,63.94
2018-05-15T16:55:33.160Z,65.08
2018-05-15T16:58:01.569Z,66.42
2018-05-15T17:00:30.111Z,67.26
2018-05-15T17:02:58.480Z,63.68
2018-05-15T17:05:26.976Z,62.80
2018-05-15T17:07:55.453Z,62.77
2018-05-15T17:10:23.839Z,62.74
2018-05-15T17:12:52.326Z,60.41
2018-05-15T17:15:20.722Z,62.79
2018-05-15T17:17:49.164Z,60.47
2018-05-15T17:20:17.622Z,60.12
2018-05-15T17:22:46.126Z,60.99
2018-05-15T17:25:14.547Z,61.12
2018-05-15T17:27:43.019Z,60.73
2018-05-15T17:30:11.433Z,62.48
2018-05-15T17:32:39.868Z,61.34
2018-05-15T17:35:08.243Z,61.45
2018-05-15T17:37:36.640Z,61.88
2018-05-15T17:40:05.121Z,62.15
2018-05-15T17:42:33.528Z,64.65
2018-05-15T17:45:01.979Z,63.63
2018-05-15T17:47:30.460Z,61.97
2018-05-15T17:49:58.845Z,62.67
2018-05-15T17:52:27.303Z,63.81
2018-05-15T17:54:55.683Z,62.57
2018-05-15T17:57:24.142Z,64.23
2018-05-15T17:59:52.657Z,63.34
2018-05-15T18:02:21.031Z,64.80
2018-05-15T18:04:49.439Z,63.27
2018-05-15T18:07:17.860Z,64.49
2018-05-15T18:09:46.255Z,64.37
2018-05-15T18:12:14.692Z,65.30
2018-05-15T18:14:43.131Z,65.41
2018-05-15T18:17:11.548Z,66.62
2018-05-15T18:19:40.021Z,66.06
2018-05-15T18:22:08.507Z,68.09
2018-05-15T18:24:36.908Z,68.33
2018-05-15T18:27:05.356Z,69.78
2018-05-15T18:29:33.772Z,68.73
2018-05-15T18:32:02.182Z,68.40
2018-05-15T18:34:30.645Z,68.81
2018-05-15T18:36:59.031Z,67.79
2018-05-15T18:39:27.431Z,69.33
2018-05-15T18:41:55.871Z,69.06
2018-05-15T18:44:24.485Z,68.70
2018-05-15T18:46:53.112Z,68.41
2018-05-15T18:49:21.569Z,68.75
2018-05-15T18:51:50.004Z,69.57
2018-05-15T18:54:18.430Z,68.71
2018-05-15T18:56:46.887Z,69.55
2018-05-15T18:59:15.336Z,69.72
2018-05-15T19:01:43.755Z,71.83
2018-05-15T19:04:12.199Z,72.20
2018-05-15T19:06:40.721Z,71.94
2018-05-15T19:09:09.095Z,72.61
2018-05-15T19:11:37.552Z,73.58
2018-05-15T19:14:05.949Z,75.75
2018-05-15T19:16:34.425Z,77.94
2018-05-15T19:19:02.867Z,79.44
2018-05-15T19:21:31.324Z,77.46
2018-05-15T19:23:59.769Z,79.87
2018-05-15T19:26:28.956Z,79.80
2018-05-15T19:28:57.351Z,80.61
2018-05-15T19:31:31.296Z,80.47
2018-05-15T19:33:59.741Z,80.63
2018-05-15T19:36:31.779Z,80.80
2018-05-15T19:39:06.108Z,81.06
2018-05-15T19:41:34.576Z,81.11
2018-05-15T19:44:02.982Z,80.89
2018-05-15T19:46:31.372Z,80.91
2018-05-15T19:48:59.808Z,79.27
2018-05-15T19:51:28.883Z,79.38
2018-05-15T19:53:57.293Z,79.64
2018-05-15T19:56:25.711Z,78.87
2018-05-15T19:58:54.124Z,79.26
2018-05-15T20:01:22.549Z,78.96
2018-05-15T20:03:50.995Z,77.90
2018-05-15T20:06:19.378Z,78.22
2018-05-15T20:08:47.831Z,78.88
2018-05-15T20:11:16.206Z,79.27
2018-05-15T20:13:44.591Z,79.92
2018-05-15T20:16:13.101Z,81.10
2018-05-15T20:18:41.432Z,82.41
2018-05-15T20:21:09.869Z,82.96
2018-05-15T20:23:38.268Z,83.07
2018-05-15T20:26:06.695Z,83.72
2018-05-15T20:28:35.109Z,83.93
2018-05-15T20:31:03.559Z,84.05
2018-05-15T20:33:31.997Z,83.54
2018-05-15T20:36:00.435Z,83.55
2018-05-15T20:38:28.909Z,82.97
2018-05-15T20:40:57.288Z,83.90
2018-05-15T20:43:25.742Z,85.02
2018-05-15T20:45:54.180Z,85.53
2018-05-15T20:48:22.633Z,86.10
2018-05-15T20:50:51.060Z,86.71
2018-05-15T20:53:19.448Z,86.35
2018-05-15T20:55:47.867Z,86.67
2018-05-15T20:58:16.243Z,86.50
2018-05-15T21:00:44.679Z,85.49
2018-05-15T21:03:13.060Z,86.17
2018-05-15T21:05:41.451Z,85.63
2018-05-15T21:08:09.919Z,85.63
2018-05-15T21:10:38.331Z,85.04
2018-05-15T21:13:06.778Z,85.65
2018-05-15T21:15:35.192Z,86.91
2018-05-15T21:18:03.643Z,86.82
2018-05-15T21:20:32.080Z,87.13
2018-05-15T21:23:00.536Z,86.75
2018-05-15T21:25:28.999Z,87.46
2018-05-15T21:27:57.402Z,87.09
2018-05-15T21:30:25.839Z,86.70
2018-05-15T21:32:54.279Z,86.79
2018-05-15T21:35:22.690Z,86.60
2018-05-15T21:37:51.146Z,86.43
2018-05-15T21:40:19.583Z,86.69
2018-05-15T21:42:48.030Z,85.91
2018-05-15T21:45:16.435Z,85.33
2018-05-15T21:47:44.899Z,84.86
2018-05-15T21:50:13.483Z,85.26
2018-05-15T21:52:42.023Z,85.46
2018-05-15T21:55:10.348Z,85.62
2018-05-15T21:57:38.919Z,85.67
2018-05-15T22:00:07.351Z,86.13
2018-05-15T22:02:35.785Z,87.21
2018-05-15T22:05:04.245Z,86.61
2018-05-15T22:07:32.730Z,86.26
2018-05-15T22:10:01.171Z,86.75
2018-05-15T22:12:41.307Z,86.91
2018-05-15T22:15:27.393Z,87.61
2018-05-15T22:18:13.888Z,88.18
2018-05-15T22:21:00.466Z,87.55
2018-05-15T22:23:34.181Z,87.46
2018-05-15T22:26:02.348Z,86.85
2018-05-15T22:28:30.786Z,86.17
2018-05-15T22:30:59.235Z,86.27
2018-05-15T22:33:27.708Z,85.78
2018-05-15T22:35:56.168Z,85.87
2018-05-15T22:38:24.640Z,85.19
2018-05-15T22:40:53.031Z,85.51
2018-05-15T22:43:21.456Z,85.58
2018-05-15T22:45:49.876Z,86.73
2018-05-15T22:48:18.271Z,86.19
2018-05-15T22:50:46.663Z,86.28
2018-05-15T22:53:15.135Z,86.66
2018-05-15T22:55:43.544Z,87.05
2018-05-15T22:58:11.995Z,86.85
2018-05-15T23:00:40.412Z,87.32
2018-05-15T23:03:08.851Z,88.10
2018-05-15T23:05:37.239Z,88.05
2018-05-15T23:08:05.706Z,85.39
2018-05-15T23:10:34.127Z,84.58
2018-05-15T23:13:02.600Z,85.16
2018-05-15T23:15:31.066Z,85.10
2018-05-15T23:17:59.504Z,84.16
2018-05-15T23:20:27.954Z,84.34
2018-05-15T23:22:56.367Z,85.00
2018-05-15T23:25:24.811Z,84.64
2018-05-15T23:27:53.267Z,84.80
2018-05-15T23:30:21.732Z,84.98
2018-05-15T23:32:50.146Z,85.27
2018-05-15T23:35:18.571Z,86.43
2018-05-15T23:37:46.966Z,87.27
2018-05-15T23:40:15.409Z,86.38
2018-05-15T23:42:43.864Z,86.89
2018-05-15T23:45:12.299Z,87.26
2018-05-15T23:47:40.747Z,87.63
2018-05-15T23:50:09.196Z,88.12
2018-05-15T23:52:37.624Z,87.06
2018-05-15T23:55:06.031Z,86.92
2018-05-15T23:57:34.512Z,88.12
